X  Fechar Dados meteorológicos de METAR da aviação     EHAM Amsterdam Airport Schiphol
Temperatura
18°C Temperatura
14°C Ponto de orvalho
78% Umidade



Vento
10 KM/H
6 MPH
3 M/S
5 NÓS



180°
S
Condições atuais

Parcialmente nublado Parcialmente nublado
Pressão 1011.85 (hPa) - 29.88 (inHg)
Visibilidade 6 (milha) - 9.7 (km)
Aeroporto
Código do aeroporto EHAM

Localização: Amsterdam Airport Schiphol
Distância: 26 (km)

Metar:
EHAM 150655Z 18005KT 140V210 9999 FEW042 18/14 Q1012 NOSIG

Hora: 15-07-2024 08:55 CEST